Time;durP1;ratioP1;P1;durP2;ratioP2;P2;SDS_P1;SDS_P2;PMS_P1;PMS_P2;Temp;Humidity;BMP_temperature;BMP_pressure;BME280_temperature;BME280_humidity;BME280_pressure;Samples;Min_cycle;Max_cycle;Signal;HPM_P1;HPM_P2
2022/02/12 00:00:14;;;;;;;60.30;36.08;;;;;;;8.05;57.05;102533.44;5011392;28;20068;-65
2022/02/12 00:02:41;;;;;;;56.72;35.17;;;;;;;8.04;56.92;102544.78;5014989;28;20054;-65
2022/02/12 00:05:08;;;;;;;59.45;36.65;;;;;;;8.00;56.97;102543.09;5014772;28;20054;-64
2022/02/12 00:07:36;;;;;;;56.33;34.92;;;;;;;7.99;56.65;102549.22;5013484;28;20046;-65
2022/02/12 00:10:04;;;;;;;58.40;32.30;;;;;;;7.99;56.67;102564.91;5014303;28;20075;-65
2022/02/12 00:12:31;;;;;;;56.60;35.33;;;;;;;7.93;56.41;102563.25;5014342;28;20053;-65
2022/02/12 00:14:58;;;;;;;56.00;35.22;;;;;;;7.90;56.35;102570.25;5014523;28;20096;-64
2022/02/12 00:17:25;;;;;;;56.60;33.80;;;;;;;7.88;56.07;102572.06;5014451;28;20485;-65
2022/02/12 00:19:51;;;;;;;53.00;33.50;;;;;;;7.87;56.04;102571.16;5014660;28;20506;-65
2022/02/12 00:22:19;;;;;;;52.95;31.85;;;;;;;7.84;55.72;102584.31;5014373;28;20050;-65
2022/02/12 00:24:45;;;;;;;53.90;32.30;;;;;;;7.80;55.67;102587.84;5014384;28;20050;-65
2022/02/12 00:27:12;;;;;;;50.40;31.20;;;;;;;7.76;55.75;102589.66;5014522;28;20437;-65
2022/02/12 00:29:39;;;;;;;53.75;33.00;;;;;;;7.75;55.61;102589.69;5014200;28;20502;-65
2022/02/12 00:32:09;;;;;;;52.72;33.78;;;;;;;7.68;55.58;102595.00;5014378;28;20120;-65
2022/02/12 00:34:37;;;;;;;53.90;33.90;;;;;;;7.61;55.50;102590.72;5014130;28;20060;-65
2022/02/12 00:37:04;;;;;;;55.15;33.97;;;;;;;7.57;55.54;102593.41;5014261;28;20458;-64
2022/02/12 00:39:31;;;;;;;50.20;32.80;;;;;;;7.55;55.37;102597.81;5014384;28;20054;-65
2022/02/12 00:41:58;;;;;;;54.72;33.78;;;;;;;7.51;55.17;102605.66;5014157;28;20053;-65
2022/02/12 00:44:25;;;;;;;50.88;34.17;;;;;;;7.46;55.43;102607.47;5014155;28;20469;-64
2022/02/12 00:46:52;;;;;;;53.05;34.13;;;;;;;7.41;55.37;102603.22;5014184;28;20050;-65
2022/02/12 00:49:19;;;;;;;53.50;34.00;;;;;;;7.38;55.34;102616.28;5013967;28;20050;-65
2022/02/12 00:51:46;;;;;;;52.40;33.28;;;;;;;7.34;55.24;102613.72;5013992;28;20100;-65
2022/02/12 00:54:13;;;;;;;52.05;32.20;;;;;;;7.33;55.26;102621.59;5013850;28;20049;-64
2022/02/12 00:56:40;;;;;;;50.25;31.75;;;;;;;7.30;55.21;102627.72;5014066;28;20479;-64
2022/02/12 00:59:08;;;;;;;57.30;35.03;;;;;;;7.29;55.11;102632.97;5014073;28;20053;-65
2022/02/12 01:01:35;;;;;;;52.25;32.60;;;;;;;7.27;55.25;102637.34;5013606;28;20050;-65
2022/02/12 01:04:03;;;;;;;52.92;31.73;;;;;;;7.25;55.00;102652.16;5012502;28;20129;-64
2022/02/12 01:06:30;;;;;;;56.53;34.00;;;;;;;7.17;55.29;102650.50;5013631;28;20046;-65
2022/02/12 01:08:58;;;;;;;52.33;32.35;;;;;;;7.11;55.27;102654.91;5013593;28;20045;-65
2022/02/12 01:11:25;;;;;;;53.78;32.90;;;;;;;7.09;55.29;102654.94;5013551;28;20212;-65
2022/02/12 01:13:52;;;;;;;51.72;31.50;;;;;;;7.09;55.28;102657.56;5013542;28;20079;-65
2022/02/12 01:16:18;;;;;;;49.20;30.23;;;;;;;7.05;55.06;102665.41;5013569;28;20045;-65
2022/02/12 01:18:45;;;;;;;49.78;30.40;;;;;;;7.05;54.95;102662.81;5013564;28;20506;-65
2022/02/12 01:21:12;;;;;;;49.47;31.35;;;;;;;7.06;54.98;102667.16;5013261;28;20053;-65
2022/02/12 01:23:39;;;;;;;50.25;30.88;;;;;;;7.05;55.11;102675.88;5012671;28;20054;-65
2022/02/12 01:26:05;;;;;;;49.15;32.60;;;;;;;7.03;55.19;102686.31;5013181;28;20127;-65
2022/02/12 01:28:32;;;;;;;52.10;30.45;;;;;;;7.00;55.23;102688.97;5013344;28;20046;-65
2022/02/12 01:30:59;;;;;;;51.83;31.88;;;;;;;7.01;55.23;102696.78;5013143;28;20057;-65
2022/02/12 01:33:25;;;;;;;56.55;32.67;;;;;;;7.02;55.15;102690.69;5012931;28;20046;-64
2022/02/12 01:35:52;;;;;;;55.72;33.97;;;;;;;7.02;55.55;102690.69;5013132;28;20053;-65
2022/02/12 01:38:19;;;;;;;60.90;35.78;;;;;;;7.13;55.73;102695.78;5013090;28;20571;-65
2022/02/12 01:40:46;;;;;;;57.75;35.28;;;;;;;7.25;56.34;102692.19;5013074;28;20042;-65
2022/02/12 01:43:13;;;;;;;57.30;35.65;;;;;;;7.31;56.84;102704.31;5012956;28;20499;-65
2022/02/12 01:45:41;;;;;;;60.10;34.30;;;;;;;7.39;57.29;102705.09;5013114;28;20112;-65
2022/02/12 01:48:07;;;;;;;56.03;34.30;;;;;;;7.46;57.96;102705.88;5012992;28;20052;-65
2022/02/12 01:50:34;;;;;;;58.58;34.97;;;;;;;7.53;58.47;102702.31;5012922;28;20100;-65
2022/02/12 01:53:01;;;;;;;49.78;30.20;;;;;;;7.59;58.99;102704.88;5012757;28;20050;-64
2022/02/12 01:55:28;;;;;;;49.65;30.83;;;;;;;7.63;59.35;102714.38;5012835;28;20056;-65
2022/02/12 01:57:55;;;;;;;44.60;27.45;;;;;;;7.66;60.00;102714.34;5012894;28;20056;-65
2022/02/12 02:00:22;;;;;;;39.33;23.63;;;;;;;7.72;60.10;102708.19;5012620;28;20046;-65
2022/02/12 02:02:49;;;;;;;34.03;21.75;;;;;;;7.75;60.41;102715.97;5012782;28;20046;-65
2022/02/12 02:05:18;;;;;;;30.95;17.75;;;;;;;7.78;60.73;102723.78;5012842;28;20458;-65
2022/02/12 02:07:45;;;;;;;28.50;16.13;;;;;;;7.85;60.84;102732.41;5012930;28;20056;-65
2022/02/12 02:10:14;;;;;;;22.60;13.07;;;;;;;7.88;60.99;102723.66;5011845;28;20073;-65
2022/02/12 02:12:41;;;;;;;23.58;13.32;;;;;;;7.89;61.16;102731.47;5012739;28;20049;-65
2022/02/12 02:15:09;;;;;;;19.85;11.93;;;;;;;7.94;61.09;102732.28;5012615;28;20057;-65
2022/02/12 02:17:36;;;;;;;17.55;11.15;;;;;;;7.95;61.29;102731.41;5012583;28;20046;-65
2022/02/12 02:20:06;;;;;;;16.65;10.48;;;;;;;7.98;61.39;102738.34;5012493;28;20076;-64
2022/02/12 02:22:47;;;;;;;15.80;10.35;;;;;;;7.99;61.50;102748.75;5012444;28;20053;-65
2022/02/12 02:25:15;;;;;;;20.70;10.13;;;;;;;8.03;61.72;102752.22;5012346;28;20050;-65
2022/02/12 02:27:42;;;;;;;18.70;10.55;;;;;;;8.03;61.49;102749.59;5012635;28;20045;-65
2022/02/12 02:30:14;;;;;;;16.98;9.45;;;;;;;8.05;61.50;102749.56;5012380;28;20461;-65
2022/02/12 02:32:42;;;;;;;18.17;9.88;;;;;;;8.05;61.63;102753.06;5012461;28;20105;-65
2022/02/12 02:35:11;;;;;;;15.75;9.23;;;;;;;8.06;61.95;102759.13;5016245;28;20049;-65
2022/02/12 02:37:39;;;;;;;18.85;9.90;;;;;;;8.09;61.73;102754.75;5016428;28;20054;-65
2022/02/12 02:40:19;;;;;;;16.48;10.25;;;;;;;8.10;61.75;102755.59;5016453;28;20491;-65
2022/02/12 02:42:48;;;;;;;14.77;9.30;;;;;;;8.14;61.79;102757.31;5016352;28;20112;-65
2022/02/12 02:45:15;;;;;;;19.40;10.82;;;;;;;8.16;61.98;102755.50;5016248;28;20057;-65
2022/02/12 02:47:42;;;;;;;17.40;9.68;;;;;;;8.18;61.66;102753.75;5016381;28;20042;-65
2022/02/12 02:56:00;;;;;;;17.08;9.88;;;;;;;8.18;62.00;102764.22;5016219;28;19925;-65
2022/02/12 02:58:34;;;;;;;22.80;10.77;;;;;;;8.19;62.05;102765.94;5016038;28;20128;-65
2022/02/12 03:01:05;;;;;;;19.92;10.85;;;;;;;8.17;61.90;102762.47;5015967;28;20050;-65
2022/02/12 03:03:32;;;;;;;17.63;9.43;;;;;;;8.18;62.08;102767.69;5015848;28;20057;-65
2022/02/12 03:05:59;;;;;;;17.67;10.77;;;;;;;8.15;62.16;102772.97;5015883;28;20045;-65
2022/02/12 03:08:28;;;;;;;20.70;10.30;;;;;;;8.10;62.19;102780.00;5015795;28;20049;-65
2022/02/12 03:10:56;;;;;;;20.33;9.93;;;;;;;8.09;62.42;102777.41;5015735;28;20052;-65
2022/02/12 03:13:23;;;;;;;16.10;9.70;;;;;;;8.08;62.35;102773.91;5015670;28;20490;-65
2022/02/12 03:15:50;;;;;;;15.02;8.70;;;;;;;8.03;62.27;102780.97;5015779;28;20490;-65
2022/02/12 03:18:17;;;;;;;12.63;8.27;;;;;;;8.01;62.43;102782.72;5015753;28;20046;-65
2022/02/12 03:20:43;;;;;;;15.30;7.70;;;;;;;8.00;62.35;102781.88;5015748;28;20052;-65
2022/02/12 03:23:11;;;;;;;12.70;7.05;;;;;;;8.00;62.11;102786.25;5015664;28;20054;-64
2022/02/12 03:25:38;;;;;;;14.27;6.78;;;;;;;8.01;62.06;102777.50;5015629;28;20042;-65
2022/02/12 03:28:06;;;;;;;15.35;6.60;;;;;;;8.02;61.90;102781.84;5015592;28;20549;-65
2022/02/12 03:30:35;;;;;;;12.25;6.85;;;;;;;8.02;62.05;102784.47;5015304;28;20458;-65
2022/02/12 03:33:02;;;;;;;10.77;6.13;;;;;;;8.02;61.96;102781.84;5015617;28;20097;-64
2022/02/12 03:35:29;;;;;;;8.88;5.50;;;;;;;8.00;61.63;102778.41;5015416;28;20479;-65
2022/02/12 03:38:10;;;;;;;10.40;5.60;;;;;;;7.97;61.87;102781.03;5015484;28;20046;-65
2022/02/12 03:40:43;;;;;;;10.30;5.70;;;;;;;7.96;61.83;102780.19;5015308;28;20080;-65
2022/02/12 03:43:10;;;;;;;10.68;6.10;;;;;;;7.97;61.71;102771.47;5015331;28;20049;-65
2022/02/12 03:45:37;;;;;;;9.43;5.43;;;;;;;7.92;61.79;102777.63;5014315;28;20050;-65
2022/02/12 03:48:06;;;;;;;10.25;5.40;;;;;;;7.93;61.55;102785.44;5015163;28;20052;-65
2022/02/12 03:50:34;;;;;;;9.07;5.40;;;;;;;7.93;61.62;102780.22;5015158;28;20054;-65
2022/02/12 03:53:04;;;;;;;9.55;5.28;;;;;;;7.89;61.48;102786.38;5015296;28;20042;-65
2022/02/12 03:55:31;;;;;;;9.60;5.00;;;;;;;7.89;61.41;102781.13;5015016;28;20061;-65
2022/02/12 03:57:57;;;;;;;10.45;5.45;;;;;;;7.89;61.41;102788.13;5015169;28;20054;-64
2022/02/12 04:00:25;;;;;;;9.82;5.90;;;;;;;7.87;61.36;102785.50;5014829;28;20095;-65
2022/02/12 04:02:51;;;;;;;11.98;5.53;;;;;;;7.88;61.40;102789.00;5011226;28;20563;-65
2022/02/12 04:05:20;;;;;;;9.48;5.07;;;;;;;7.87;61.23;102793.34;5011796;28;20496;-65
2022/02/12 04:07:47;;;;;;;13.95;5.07;;;;;;;7.85;61.11;102798.59;5011612;28;20053;-65
2022/02/12 04:10:16;;;;;;;11.15;5.30;;;;;;;7.83;61.08;102795.16;5011407;28;20042;-65
2022/02/12 04:12:44;;;;;;;9.52;4.97;;;;;;;7.84;61.18;102796.00;5011640;28;20054;-65
2022/02/12 04:15:12;;;;;;;8.48;4.93;;;;;;;7.81;61.02;102796.91;5011560;28;20054;-65
2022/02/12 04:17:39;;;;;;;11.15;4.20;;;;;;;7.80;61.05;102796.94;5011663;28;20046;-65
2022/02/12 04:20:08;;;;;;;6.57;4.40;;;;;;;7.80;60.88;102800.41;5011624;28;20072;-65
2022/02/12 04:22:36;;;;;;;7.68;3.97;;;;;;;7.76;60.86;102797.88;5011333;28;20046;-65
2022/02/12 04:25:05;;;;;;;14.40;4.32;;;;;;;7.71;60.94;102805.75;5011492;28;20506;-65
2022/02/12 04:27:32;;;;;;;7.38;4.18;;;;;;;7.69;61.00;102815.34;5010671;28;20056;-65
2022/02/12 04:29:59;;;;;;;8.68;4.68;;;;;;;7.68;61.28;102811.00;5010986;28;20053;-65
2022/02/12 04:32:26;;;;;;;8.52;3.78;;;;;;;7.65;61.07;102808.44;5011045;28;20451;-65
2022/02/12 04:34:54;;;;;;;9.88;4.28;;;;;;;7.61;60.73;102810.22;5011030;28;20100;-65
2022/02/12 04:37:22;;;;;;;12.43;4.38;;;;;;;7.57;60.97;102811.13;5010930;28;20503;-65
2022/02/12 04:39:49;;;;;;;10.20;4.72;;;;;;;7.57;60.82;102811.13;5010855;28;20144;-65
2022/02/12 04:42:17;;;;;;;7.88;3.60;;;;;;;7.56;60.71;102814.63;5010886;28;20046;-65
2022/02/12 04:44:48;;;;;;;8.55;3.60;;;;;;;7.54;60.53;102805.91;5010765;28;20049;-65
2022/02/12 04:47:15;;;;;;;7.13;3.53;;;;;;;7.52;60.76;102810.31;5010725;28;20073;-64
2022/02/12 04:49:43;;;;;;;7.40;3.28;;;;;;;7.49;60.59;102815.56;5010791;28;20050;-65
2022/02/12 04:52:12;;;;;;;10.07;3.10;;;;;;;7.47;60.60;102819.94;5010909;28;20096;-64
2022/02/12 04:54:39;;;;;;;8.70;3.17;;;;;;;7.42;60.61;102814.75;5010758;28;20506;-65
2022/02/12 04:57:06;;;;;;;6.68;2.70;;;;;;;7.40;60.36;102815.66;5010960;28;20494;-65
2022/02/12 04:59:34;;;;;;;6.47;2.83;;;;;;;7.38;60.42;102827.84;5010743;28;20053;-65
2022/02/12 05:02:01;;;;;;;5.80;2.80;;;;;;;7.32;60.56;102816.59;5010722;28;20046;-65
2022/02/12 05:04:27;;;;;;;4.45;2.80;;;;;;;7.30;60.44;102826.19;5010676;28;20052;-65
2022/02/12 05:06:54;;;;;;;5.88;3.10;;;;;;;7.28;60.49;102827.94;5010487;28;20045;-64
2022/02/12 05:09:21;;;;;;;5.38;2.50;;;;;;;7.26;60.41;102827.13;5010524;28;20495;-65
2022/02/12 05:11:50;;;;;;;5.22;2.53;;;;;;;7.25;60.32;102822.75;5010562;28;20049;-65
2022/02/12 05:14:18;;;;;;;5.45;2.70;;;;;;;7.23;59.88;102815.81;5010414;28;20065;-65
2022/02/12 05:16:45;;;;;;;5.65;2.08;;;;;;;7.24;59.82;102825.38;5010360;28;20050;-65
2022/02/12 05:19:12;;;;;;;5.72;2.47;;;;;;;7.24;60.20;102821.03;5010318;28;20126;-65
2022/02/12 05:21:40;;;;;;;6.10;1.98;;;;;;;7.24;59.46;102820.16;5010166;28;20049;-64
2022/02/12 05:24:07;;;;;;;6.40;2.33;;;;;;;7.22;59.71;102827.16;5010604;28;20521;-65
2022/02/12 05:26:34;;;;;;;7.88;2.45;;;;;;;7.21;59.30;102823.66;5010217;28;20557;-64
2022/02/12 05:29:00;;;;;;;7.72;3.45;;;;;;;7.19;59.29;102820.19;5010035;28;20054;-65
2022/02/12 05:31:27;;;;;;;6.57;3.10;;;;;;;7.17;59.04;102816.72;5010233;28;20104;-64
2022/02/12 05:33:53;;;;;;;9.95;3.92;;;;;;;7.16;58.99;102823.72;5010096;28;20558;-64
2022/02/12 05:36:20;;;;;;;7.45;4.05;;;;;;;7.14;58.97;102822.00;5009800;28;20508;-65
2022/02/12 05:38:47;;;;;;;5.32;2.70;;;;;;;7.17;58.80;102830.66;5010084;28;20050;-65
2022/02/12 05:41:15;;;;;;;5.80;3.00;;;;;;;7.13;58.56;102826.31;5010036;28;20057;-65
2022/02/12 05:43:44;;;;;;;5.07;2.60;;;;;;;7.09;58.38;102834.22;5010133;28;20049;-65
2022/02/12 05:46:11;;;;;;;3.75;2.25;;;;;;;7.08;58.43;102832.47;5009930;28;20053;-64
2022/02/12 05:48:38;;;;;;;7.32;3.05;;;;;;;7.05;58.16;102830.75;5009943;28;20057;-65
2022/02/12 05:51:05;;;;;;;6.25;2.22;;;;;;;7.02;58.06;102830.78;5009857;28;20454;-65
2022/02/12 05:53:32;;;;;;;6.55;2.20;;;;;;;6.98;58.08;102842.13;5009863;28;20042;-65
2022/02/12 05:55:59;;;;;;;7.78;2.22;;;;;;;6.95;58.20;102845.63;5009645;28;20407;-64
2022/02/12 05:58:26;;;;;;;5.93;1.98;;;;;;;6.88;58.21;102837.84;5009564;28;20493;-64
2022/02/12 06:00:52;;;;;;;5.97;2.08;;;;;;;6.83;57.86;102850.91;5009717;28;20079;-64
2022/02/12 06:03:19;;;;;;;7.70;2.53;;;;;;;6.78;57.82;102850.09;5009766;28;20050;-64
2022/02/12 06:05:46;;;;;;;8.77;2.70;;;;;;;6.78;57.63;102850.97;5009768;28;20049;-64
2022/02/12 06:08:13;;;;;;;4.30;2.33;;;;;;;6.73;57.43;102851.88;5009109;28;20097;-64
2022/02/12 06:10:44;;;;;;;4.47;2.03;;;;;;;6.70;57.65;102856.25;5009548;28;20053;-64
2022/02/12 06:13:11;;;;;;;4.95;2.03;;;;;;;6.67;57.31;102861.47;5009465;28;20120;-64
2022/02/12 06:15:38;;;;;;;5.43;2.63;;;;;;;6.64;57.40;102865.81;5009382;28;20054;-64
2022/02/12 06:18:05;;;;;;;3.55;2.00;;;;;;;6.62;57.15;102871.06;5009917;28;20461;-64
2022/02/12 06:20:32;;;;;;;3.15;1.80;;;;;;;6.59;57.07;102872.81;5009244;28;20057;-64
2022/02/12 06:23:00;;;;;;;3.97;2.00;;;;;;;6.59;57.00;102870.22;5009860;28;20453;-64
2022/02/12 06:25:27;;;;;;;5.00;2.08;;;;;;;6.56;57.03;102876.31;5009432;28;20089;-64
2022/02/12 06:27:57;;;;;;;6.05;2.20;;;;;;;6.54;56.74;102876.31;5009294;28;20068;-64
2022/02/12 06:30:25;;;;;;;10.40;2.70;;;;;;;6.51;56.98;102881.56;5008976;28;20062;-64
2022/02/12 06:32:52;;;;;;;9.05;2.60;;;;;;;6.48;56.92;102880.72;5009209;28;20439;-64
2022/02/12 06:35:19;;;;;;;4.57;2.70;;;;;;;6.44;56.82;102879.00;5009193;28;20049;-64
2022/02/12 06:37:46;;;;;;;7.10;3.20;;;;;;;6.41;56.83;102879.00;5009394;28;20050;-64
2022/02/12 06:40:13;;;;;;;6.68;3.20;;;;;;;6.39;56.66;102886.84;5009388;28;20055;-64
2022/02/12 06:42:40;;;;;;;6.82;2.78;;;;;;;6.38;56.55;102885.94;5009046;28;20100;-64
2022/02/12 06:45:08;;;;;;;6.63;3.30;;;;;;;6.40;56.38;102887.69;5009188;28;20096;-64
2022/02/12 06:47:37;;;;;;;9.75;2.50;;;;;;;6.40;56.24;102887.69;5009130;28;20050;-64
2022/02/12 06:50:04;;;;;;;7.38;2.75;;;;;;;6.38;56.17;102892.91;5009180;28;20050;-64
2022/02/12 06:52:31;;;;;;;11.02;3.33;;;;;;;6.38;56.21;102895.53;5009030;28;20042;-64
2022/02/12 06:54:57;;;;;;;9.68;3.80;;;;;;;6.37;56.08;102897.28;5009044;28;20494;-64
2022/02/12 06:57:24;;;;;;;6.72;3.13;;;;;;;6.37;56.04;102894.66;5009175;28;20046;-64
2022/02/12 06:59:51;;;;;;;10.20;3.85;;;;;;;6.40;55.87;102903.34;5009289;28;20103;-64
2022/02/12 07:02:18;;;;;;;10.18;3.30;;;;;;;6.44;55.54;102900.72;5009160;28;20050;-64
2022/02/12 07:04:45;;;;;;;6.53;2.85;;;;;;;6.47;55.47;102905.06;5008950;28;20075;-65
2022/02/12 07:07:12;;;;;;;6.25;3.25;;;;;;;6.55;55.15;102908.47;5009106;28;20124;-64
2022/02/12 07:09:39;;;;;;;6.93;2.50;;;;;;;6.68;54.84;102904.94;5008759;28;20057;-64
2022/02/12 07:12:07;;;;;;;5.80;2.50;;;;;;;6.78;54.92;102911.00;5008844;28;20077;-64
2022/02/12 07:14:34;;;;;;;6.80;2.65;;;;;;;6.88;54.48;102916.16;5008878;28;20046;-65
2022/02/12 07:17:03;;;;;;;6.32;3.10;;;;;;;6.96;54.56;102917.84;5008561;28;20050;-64
2022/02/12 07:19:30;;;;;;;9.07;3.95;;;;;;;7.10;54.25;102919.50;5008708;28;20492;-64
2022/02/12 07:21:56;;;;;;;7.82;3.35;;;;;;;7.22;54.06;102929.84;5012205;28;20103;-64
2022/02/12 07:24:23;;;;;;;8.07;3.70;;;;;;;7.32;53.76;102921.06;5012362;28;20046;-64
2022/02/12 07:26:49;;;;;;;8.35;4.28;;;;;;;7.50;53.28;102930.50;5012149;28;20141;-64
2022/02/12 07:29:16;;;;;;;7.35;3.15;;;;;;;7.70;52.88;102928.59;5011943;28;20065;-64
2022/02/12 07:31:43;;;;;;;5.13;2.80;;;;;;;7.95;52.08;102930.09;5012544;28;20414;-64
2022/02/12 07:34:14;;;;;;;5.40;2.97;;;;;;;8.24;51.36;102930.63;5012228;28;20056;-64
2022/02/12 07:36:41;;;;;;;6.72;4.00;;;;;;;8.62;50.48;102937.19;5012430;28;20042;-64
2022/02/12 07:39:10;;;;;;;7.72;3.88;;;;;;;8.96;49.51;102941.97;5012188;28;20425;-64
2022/02/12 07:41:37;;;;;;;7.50;2.90;;;;;;;9.18;48.73;102949.50;5011784;28;20414;-64
2022/02/12 07:44:04;;;;;;;8.25;2.72;;;;;;;9.37;48.25;102948.34;5012263;28;20054;-64
2022/02/12 07:46:31;;;;;;;5.72;2.88;;;;;;;9.58;47.72;102943.63;5012064;28;20061;-64
2022/02/12 07:48:57;;;;;;;6.22;2.70;;;;;;;9.79;47.09;102947.66;5011834;28;20053;-64
2022/02/12 07:51:24;;;;;;;5.28;2.67;;;;;;;10.01;46.64;102944.63;5011702;28;20046;-64
2022/02/12 07:53:51;;;;;;;6.32;3.10;;;;;;;10.24;46.12;102954.69;5012103;28;20088;-64
2022/02/12 07:56:18;;;;;;;5.50;3.10;;;;;;;10.41;45.74;102952.63;5011917;28;20396;-64
2022/02/12 07:58:45;;;;;;;7.60;3.38;;;;;;;10.59;45.40;102955.78;5011684;28;20053;-64
2022/02/12 08:01:14;;;;;;;5.22;3.05;;;;;;;10.74;44.95;102958.06;5011549;28;20057;-64
2022/02/12 08:03:41;;;;;;;5.15;2.95;;;;;;;10.92;44.43;102961.19;5011622;28;20042;-64
2022/02/12 08:07:27;;;;;;;6.13;3.03;;;;;;;11.06;44.02;102955.63;5011520;28;20092;-64
2022/02/12 08:08:54;;;;;;;4.75;3.20;;;;;;;11.23;43.55;102955.22;5011539;28;20565;-64
2022/02/12 08:11:26;;;;;;;5.38;3.28;;;;;;;11.38;42.99;102959.25;5010371;28;20064;-64
2022/02/12 08:13:53;;;;;;;5.25;3.15;;;;;;;11.57;42.40;102968.41;5011634;28;20048;-64
2022/02/12 08:16:20;;;;;;;6.65;3.97;;;;;;;11.74;42.09;102961.84;5011267;28;20120;-64
2022/02/12 08:18:47;;;;;;;4.63;2.83;;;;;;;11.92;41.57;102961.38;5011919;28;20046;-64
2022/02/12 08:21:14;;;;;;;3.28;2.22;;;;;;;12.06;41.36;102960.16;5011366;28;20046;-64
2022/02/12 08:23:40;;;;;;;3.10;2.13;;;;;;;12.16;41.10;102958.13;5011187;28;20132;-64
2022/02/12 08:26:07;;;;;;;3.22;2.40;;;;;;;12.30;40.58;102960.38;5011099;28;20050;-64
2022/02/12 08:28:34;;;;;;;3.80;2.50;;;;;;;12.48;40.37;102961.63;5011202;28;20050;-65
2022/02/12 08:31:01;;;;;;;4.32;2.22;;;;;;;12.63;40.07;102960.31;5010690;28;20061;-64
2022/02/12 08:33:27;;;;;;;3.05;2.03;;;;;;;12.80;39.54;102960.69;5011084;28;20088;-64
2022/02/12 08:35:54;;;;;;;5.72;2.28;;;;;;;12.94;39.32;102965.53;5010915;28;20058;-64
2022/02/12 08:38:22;;;;;;;4.78;2.40;;;;;;;13.13;38.84;102963.19;5010959;28;20636;-64
2022/02/12 08:40:49;;;;;;;4.15;2.17;;;;;;;13.30;38.59;102967.91;5010960;28;20469;-64
2022/02/12 08:43:15;;;;;;;4.18;2.22;;;;;;;13.44;38.40;102969.28;5010842;28;20490;-64
2022/02/12 08:45:42;;;;;;;4.75;2.58;;;;;;;13.59;38.11;102970.53;5010979;28;20058;-64
2022/02/12 08:48:10;;;;;;;4.22;2.45;;;;;;;13.72;37.54;102969.19;5010837;28;20054;-64
2022/02/12 08:50:37;;;;;;;5.18;1.95;;;;;;;13.86;37.15;102964.31;5010673;28;20058;-64
2022/02/12 08:53:04;;;;;;;4.00;1.90;;;;;;;14.04;36.82;102960.16;5010816;28;20050;-65
2022/02/12 08:55:31;;;;;;;8.43;3.10;;;;;;;14.22;36.21;102955.13;5010655;28;20053;-64
2022/02/12 08:57:58;;;;;;;4.18;2.20;;;;;;;14.39;36.11;102962.44;5010763;28;20092;-65
2022/02/12 09:00:24;;;;;;;4.88;2.25;;;;;;;14.54;35.71;102956.56;5010315;28;20046;-65
2022/02/12 09:03:12;;;;;;;2.45;1.85;;;;;;;14.66;35.66;102960.53;5010280;28;20050;-65
2022/02/12 09:05:38;;;;;;;3.20;2.25;;;;;;;14.79;35.14;102952.16;5010633;28;20491;-65
2022/02/12 09:08:05;;;;;;;4.30;2.30;;;;;;;14.94;34.40;102950.69;5010379;28;20056;-65
2022/02/12 09:10:32;;;;;;;6.10;2.42;;;;;;;15.06;34.24;102950.22;5010376;28;20099;-65
2022/02/12 09:12:59;;;;;;;5.47;2.00;;;;;;;15.24;33.54;102955.69;5010617;28;20069;-64
2022/02/12 09:15:26;;;;;;;4.82;1.90;;;;;;;15.37;33.19;102956.88;5010472;28;20060;-65
2022/02/12 09:17:52;;;;;;;3.60;1.95;;;;;;;15.53;32.80;102959.75;5010389;28;20045;-65
2022/02/12 09:20:19;;;;;;;6.55;2.20;;;;;;;15.67;32.05;102960.03;5010195;28;20046;-64
2022/02/12 09:22:46;;;;;;;3.17;1.70;;;;;;;15.79;31.38;102960.41;5010461;28;20072;-65
2022/02/12 09:25:13;;;;;;;3.45;1.40;;;;;;;15.81;31.05;102959.47;5010258;28;20514;-64
2022/02/12 09:27:40;;;;;;;3.47;1.30;;;;;;;15.78;30.24;102958.69;5010159;28;20054;-64
2022/02/12 09:30:08;;;;;;;0.98;0.65;;;;;;;15.82;28.90;102968.25;5010082;28;20498;-64
2022/02/12 09:32:34;;;;;;;1.48;0.80;;;;;;;15.91;28.02;102973.16;5010105;28;20060;-64
2022/02/12 09:35:01;;;;;;;2.22;0.77;;;;;;;16.03;27.53;102961.16;5010202;28;20054;-64
2022/02/12 09:37:28;;;;;;;2.13;0.95;;;;;;;16.24;26.61;102964.66;5009918;28;20050;-64
2022/02/12 09:39:54;;;;;;;2.03;0.80;;;;;;;16.39;26.20;102967.53;5009967;28;20466;-65
2022/02/12 09:42:21;;;;;;;2.25;1.17;;;;;;;16.48;25.59;102949.41;5009623;28;20494;-64
2022/02/12 09:44:48;;;;;;;3.03;0.65;;;;;;;16.54;25.44;102960.66;5009460;28;20046;-64
2022/02/12 09:47:29;;;;;;;1.83;1.00;;;;;;;16.64;24.71;102954.00;5009683;28;20046;-65
2022/02/12 09:49:57;;;;;;;1.75;0.77;;;;;;;16.83;24.07;102963.75;5009795;28;20057;-64
2022/02/12 09:52:29;;;;;;;2.20;0.80;;;;;;;16.95;23.65;102960.50;5009645;28;20155;-65
2022/02/12 09:54:57;;;;;;;1.48;0.80;;;;;;;17.14;23.38;102956.03;5009413;28;20046;-64
2022/02/12 09:57:23;;;;;;;2.30;0.70;;;;;;;17.26;22.83;102954.56;5009538;28;20042;-64
2022/02/12 10:00:00;;;;;;;2.13;0.85;;;;;;;17.19;23.21;102958.47;5009594;28;20104;-64
2022/02/12 10:02:27;;;;;;;2.63;1.00;;;;;;;17.37;22.80;102954.06;5009536;28;20050;-64
2022/02/12 10:05:16;;;;;;;2.88;1.00;;;;;;;17.60;22.13;102952.03;5009534;28;20120;-64
2022/02/12 10:07:44;;;;;;;1.35;0.70;;;;;;;17.82;21.88;102943.78;5009474;28;20049;-66
2022/02/12 10:10:13;;;;;;;2.83;0.73;;;;;;;17.77;22.27;102948.50;5008240;28;20042;-64
2022/02/12 10:12:39;;;;;;;1.33;0.90;;;;;;;17.99;21.67;102950.94;5009421;28;20042;-64
2022/02/12 10:15:27;;;;;;;1.92;1.05;;;;;;;18.16;21.40;102946.50;5009256;28;20052;-64
2022/02/12 10:17:58;;;;;;;4.35;1.35;;;;;;;18.36;21.68;102948.94;5009322;28;20049;-64
2022/02/12 10:20:36;;;;;;;2.63;1.30;;;;;;;18.36;21.65;102943.63;5008942;28;20053;-64
2022/02/12 10:23:07;;;;;;;3.42;1.10;;;;;;;18.46;21.22;102943.97;5009452;28;20483;-64
2022/02/12 10:25:36;;;;;;;1.38;0.80;;;;;;;18.54;21.42;102946.22;5009191;28;20053;-64
2022/02/12 10:28:04;;;;;;;1.15;0.77;;;;;;;18.64;20.74;102939.44;5009340;28;20054;-64
2022/02/12 10:30:31;;;;;;;3.22;1.00;;;;;;;18.77;20.51;102942.25;5009382;28;20504;-64
2022/02/12 10:33:04;;;;;;;1.67;1.00;;;;;;;18.82;20.80;102942.03;5009084;28;20081;-64
2022/02/12 10:35:32;;;;;;;2.13;0.98;;;;;;;18.88;20.25;102931.00;5009241;28;20045;-64
2022/02/12 10:38:10;;;;;;;2.97;0.95;;;;;;;18.94;19.76;102936.00;5009293;28;20116;-64
2022/02/12 10:40:38;;;;;;;2.85;1.10;;;;;;;18.90;20.13;102939.78;5009482;28;20050;-64
2022/02/12 10:43:05;;;;;;;1.52;0.70;;;;;;;19.00;19.87;102934.81;5009519;28;20077;-64
2022/02/12 10:45:32;;;;;;;2.70;1.10;;;;;;;19.09;19.26;102927.13;5009430;28;20061;-64
2022/02/12 10:48:00;;;;;;;1.55;0.55;;;;;;;19.21;19.08;102927.38;5009135;28;20491;-64
2022/02/12 10:50:29;;;;;;;2.30;0.65;;;;;;;19.36;19.24;102926.50;5009070;28;20049;-64
2022/02/12 10:52:59;;;;;;;1.33;0.90;;;;;;;19.21;19.22;102925.59;5009023;28;20046;-64
2022/02/12 10:55:31;;;;;;;1.05;0.57;;;;;;;19.30;18.89;102916.19;5011670;28;20054;-64
2022/02/12 10:58:13;;;;;;;1.08;0.75;;;;;;;19.32;18.42;102913.44;5013200;28;20049;-64
2022/02/12 11:00:41;;;;;;;2.50;1.05;;;;;;;19.31;18.40;102915.25;5012817;28;20042;-64
2022/02/12 11:03:11;;;;;;;1.58;0.88;;;;;;;19.45;18.16;102909.06;5012803;28;20133;-64
2022/02/12 11:05:42;;;;;;;2.13;0.95;;;;;;;19.44;18.45;102907.38;5012847;28;20045;-64
2022/02/12 11:08:10;;;;;;;0.90;0.50;;;;;;;19.51;18.41;102905.22;5012971;28;20057;-64
2022/02/12 11:10:38;;;;;;;4.15;0.80;;;;;;;19.50;18.52;102904.38;5012590;28;20134;-64
2022/02/12 11:13:06;;;;;;;1.65;1.15;;;;;;;19.56;18.48;102901.31;5012692;28;20049;-64
2022/02/12 11:15:34;;;;;;;2.08;1.33;;;;;;;19.48;18.53;102900.06;5012605;28;20052;-66
2022/02/12 11:18:10;;;;;;;2.78;1.80;;;;;;;19.54;18.11;102892.56;5012827;28;20570;-66
2022/02/12 11:20:39;;;;;;;2.33;1.58;;;;;;;19.60;18.46;102887.81;5012529;28;20486;-64
2022/02/12 11:23:21;;;;;;;2.63;1.40;;;;;;;19.60;18.37;102870.00;5012349;28;20041;-64
2022/02/12 11:25:49;;;;;;;2.25;1.30;;;;;;;19.46;18.42;102880.66;5012400;28;20049;-64
2022/02/12 11:28:20;;;;;;;1.58;1.10;;;;;;;19.48;18.37;102870.78;5012318;28;20050;-64
2022/02/12 11:30:46;;;;;;;1.67;1.20;;;;;;;19.58;17.77;102869.28;5012566;28;20131;-64
2022/02/12 11:33:16;;;;;;;2.08;1.17;;;;;;;19.71;17.62;102856.06;5012388;28;20046;-64
2022/02/12 11:35:42;;;;;;;3.83;1.20;;;;;;;19.77;17.81;102857.47;5012179;28;20049;-64